If you wish to contribute or participate in the discussions about articles you are invited to join SKYbrary as a registered user

 Actions

Châteauroux-Déols "Marcel Dassault" Airport

From SKYbrary Wiki

LFLX
Airport
ICAO: LFLX – IATA: CHR
Summary
Name Châteauroux-Déols "Marcel Dassault" Airport
Region Europe
Territory France FR.gif
Location , Centre
Serving Chateauroux
Elevation 161.239 m
529 ft
529 ft161.239 m
Type medium airport
Coordinates 46° 51' 43.90" N, 1° 43' 50.40" E
Runways
Designator Length Width Surface ROPS
4/22 3500 m11,482.94 ft
45 m147.638 ft
CON no/no


METAR
Observation LFLX 111030Z AUTO 01011KT 8000 FEW026 13/06 Q1018 NOSIG
Station Chateauroux
Date/Time 11 April 2019 10:30:00
Wind direction 10°
Wind speed 11 kts
Lowest cloud amount few clouds
Temperature 13°C
Dew point 6°C
Humidity 62%
QNH 1018 hPa
Weather condition n/a